Time;durP1;ratioP1;P1;durP2;ratioP2;P2;SDS_P1;SDS_P2;PMS_P1;PMS_P2;Temp;Humidity;BMP_temperature;BMP_pressure;BME280_temperature;BME280_humidity;BME280_pressure;Samples;Min_cycle;Max_cycle;Signal;HPM_P1;HPM_P2
2022/12/25 00:08:23;;;;;;;28.65;16.73;;;;;;;;;;21250340;27;20049;-66
2022/12/25 00:18:25;;;;;;;30.48;17.17;;;;;;;;;;21255529;27;20046;-63
2022/12/25 00:28:27;;;;;;;30.23;18.35;;;;;;;;;;21249088;27;20415;-60
2022/12/25 00:38:28;;;;;;;32.55;18.55;;;;;;;;;;21248125;27;20047;-60
2022/12/25 00:48:31;;;;;;;34.05;18.48;;;;;;;;;;21247606;27;20127;-61
2022/12/25 00:58:33;;;;;;;33.45;18.45;;;;;;;;;;21247735;27;20057;-58
2022/12/25 01:08:36;;;;;;;26.80;15.85;;;;;;;;;;21248254;28;20074;-63
2022/12/25 01:18:38;;;;;;;33.17;16.73;;;;;;;;;;21246828;28;20051;-68
2022/12/25 01:28:41;;;;;;;35.20;16.85;;;;;;;;;;21247597;28;20050;-65
2022/12/25 01:38:45;;;;;;;37.00;17.67;;;;;;;;;;21256629;27;20055;-67
2022/12/25 01:48:47;;;;;;;39.00;17.50;;;;;;;;;;21262701;27;20074;-59
2022/12/25 01:58:49;;;;;;;32.83;16.17;;;;;;;;;;21262178;27;20047;-67
2022/12/25 02:08:51;;;;;;;25.73;12.93;;;;;;;;;;21261724;27;20252;-68
2022/12/25 02:19:00;;;;;;;29.23;12.70;;;;;;;;;;21260282;27;20094;-64
2022/12/25 02:29:16;;;;;;;27.52;12.40;;;;;;;;;;21259384;27;20051;-59
2022/12/25 03:31:44;;;;;;;17.63;9.73;;;;;;;;;;21253784;27;20129;-59
2022/12/25 04:45:03;;;;;;;10.90;6.88;;;;;;;;;;21085808;27;20054;-61
2022/12/25 04:55:24;;;;;;;14.85;7.78;;;;;;;;;;21248693;27;20108;-58
2022/12/25 05:05:47;;;;;;;11.95;7.32;;;;;;;;;;21248514;27;20043;-58
2022/12/25 05:15:51;;;;;;;13.88;7.97;;;;;;;;;;21264612;27;20437;-59
2022/12/25 05:26:03;;;;;;;11.20;6.90;;;;;;;;;;21264864;27;20466;-59
2022/12/25 05:36:06;;;;;;;15.13;7.97;;;;;;;;;;21263464;27;20498;-57
2022/12/25 05:46:13;;;;;;;16.98;8.07;;;;;;;;;;21262613;27;20047;-59
2022/12/25 05:56:16;;;;;;;14.35;7.55;;;;;;;;;;21261376;27;20055;-59
2022/12/25 06:06:20;;;;;;;11.48;6.43;;;;;;;;;;21261318;27;20051;-62
2022/12/25 06:16:24;;;;;;;8.30;5.22;;;;;;;;;;21260324;27;20050;-60
2022/12/25 06:26:29;;;;;;;8.27;5.43;;;;;;;;;;21258871;27;20092;-60
2022/12/25 06:36:37;;;;;;;7.03;4.80;;;;;;;;;;21258392;27;20058;-59
2022/12/25 06:46:45;;;;;;;8.23;5.05;;;;;;;;;;21258570;27;20096;-58
2022/12/25 06:56:48;;;;;;;10.63;5.50;;;;;;;;;;21256066;27;20151;-57
2022/12/25 07:06:50;;;;;;;7.93;5.32;;;;;;;;;;21257447;27;20066;-57
2022/12/25 07:16:54;;;;;;;7.03;4.60;;;;;;;;;;21256612;27;20043;-58
2022/12/25 07:26:56;;;;;;;8.20;4.90;;;;;;;;;;21255525;27;20187;-61
2022/12/25 07:36:59;;;;;;;7.93;5.10;;;;;;;;;;21253508;27;20104;-61
2022/12/25 07:47:01;;;;;;;7.80;4.95;;;;;;;;;;21253442;27;20047;-60
2022/12/25 07:57:03;;;;;;;8.57;4.50;;;;;;;;;;21252933;27;20066;-60
2022/12/25 08:07:05;;;;;;;6.63;4.38;;;;;;;;;;21252671;27;20058;-59
2022/12/25 08:17:07;;;;;;;8.98;4.57;;;;;;;;;;21251057;27;20055;-64
2022/12/25 08:27:09;;;;;;;7.22;5.20;;;;;;;;;;21251489;27;20047;-59
2022/12/25 08:37:11;;;;;;;7.40;4.95;;;;;;;;;;21247487;27;20085;-59
2022/12/25 08:47:13;;;;;;;11.07;6.05;;;;;;;;;;21249213;27;20058;-60
2022/12/25 08:57:14;;;;;;;8.63;5.57;;;;;;;;;;21248229;27;20047;-59
2022/12/25 09:07:16;;;;;;;11.20;5.60;;;;;;;;;;21248890;27;20043;-60
2022/12/25 09:17:18;;;;;;;12.30;6.53;;;;;;;;;;21249138;27;20058;-59
2022/12/25 09:27:20;;;;;;;13.63;7.47;;;;;;;;;;21248359;27;20088;-60
2022/12/25 09:37:22;;;;;;;10.65;6.75;;;;;;;;;;21247201;27;20365;-61
2022/12/25 09:47:28;;;;;;;13.07;6.97;;;;;;;;;;21247393;27;20047;-60
2022/12/25 09:57:32;;;;;;;10.15;7.07;;;;;;;;;;21252082;27;20141;-60
2022/12/25 10:07:42;;;;;;;14.05;7.20;;;;;;;;;;21262147;27;20066;-60
2022/12/25 10:17:44;;;;;;;15.68;7.90;;;;;;;;;;21262106;27;20090;-61
2022/12/25 10:27:48;;;;;;;10.15;7.28;;;;;;;;;;21260745;27;20127;-59
2022/12/25 10:38:00;;;;;;;13.70;7.53;;;;;;;;;;21258853;27;20053;-58
2022/12/25 10:48:04;;;;;;;15.05;8.05;;;;;;;;;;21257516;27;20129;-60
2022/12/25 10:58:05;;;;;;;16.00;7.60;;;;;;;;;;21257567;27;20157;-68
2022/12/25 11:08:17;;;;;;;14.05;7.65;;;;;;;;;;21255801;27;20043;-62
2022/12/25 11:18:24;;;;;;;12.65;7.03;;;;;;;;;;21256336;27;20503;-63
2022/12/25 11:28:27;;;;;;;12.73;7.40;;;;;;;;;;21255068;27;20166;-65
2022/12/25 11:38:29;;;;;;;16.92;7.68;;;;;;;;;;21252399;27;20130;-68
2022/12/25 11:48:33;;;;;;;13.50;6.93;;;;;;;;;;21250052;27;20047;-61
2022/12/25 11:58:35;;;;;;;17.48;7.07;;;;;;;;;;21252027;27;20063;-60
2022/12/25 12:08:37;;;;;;;17.25;7.45;;;;;;;;;;21251518;27;20050;-58
2022/12/25 12:18:40;;;;;;;14.25;6.53;;;;;;;;;;21250850;27;20115;-59
2022/12/25 12:28:44;;;;;;;13.73;6.80;;;;;;;;;;21249972;27;20039;-60
2022/12/25 12:38:46;;;;;;;14.43;5.95;;;;;;;;;;21248934;27;20499;-60
2022/12/25 12:48:50;;;;;;;9.45;6.35;;;;;;;;;;21250190;27;20047;-60
2022/12/25 12:58:52;;;;;;;11.35;6.05;;;;;;;;;;21247571;27;20051;-60
2022/12/25 13:09:06;;;;;;;8.57;4.38;;;;;;;;;;21248238;28;20058;-59
2022/12/25 13:19:11;;;;;;;8.43;4.13;;;;;;;;;;21247214;28;20159;-59
2022/12/25 13:29:29;;;;;;;6.38;3.67;;;;;;;;;;21247490;27;20044;-60
2022/12/25 13:39:33;;;;;;;8.05;4.05;;;;;;;;;;21264380;27;20563;-59
2022/12/25 13:49:36;;;;;;;7.22;3.53;;;;;;;;;;21244325;27;20108;-59
2022/12/25 13:59:38;;;;;;;12.32;3.97;;;;;;;;;;21261995;27;20114;-60
2022/12/25 14:09:40;;;;;;;9.77;3.72;;;;;;;;;;21261973;27;20544;-61
2022/12/25 14:19:43;;;;;;;6.40;3.50;;;;;;;;;;21260605;27;20043;-63
2022/12/25 14:29:47;;;;;;;8.43;4.47;;;;;;;;;;21259299;27;20055;-61
2022/12/25 14:40:00;;;;;;;11.70;4.13;;;;;;;;;;21258206;27;20142;-60
2022/12/25 14:50:12;;;;;;;12.90;3.58;;;;;;;;;;21258743;27;20122;-62
2022/12/25 15:00:37;;;;;;;7.78;3.08;;;;;;;;;;21256039;27;20054;-62
2022/12/25 15:10:40;;;;;;;7.55;3.60;;;;;;;;;;21255490;27;20483;-61
2022/12/25 15:20:44;;;;;;;7.75;3.85;;;;;;;;;;21258264;27;20047;-61
2022/12/25 15:30:48;;;;;;;6.45;3.78;;;;;;;;;;21235304;27;20055;-66
2022/12/25 15:40:50;;;;;;;7.70;3.50;;;;;;;;;;21252485;27;20086;-69
2022/12/25 15:50:52;;;;;;;13.50;4.07;;;;;;;;;;21252318;27;20061;-61
2022/12/25 16:00:55;;;;;;;5.63;2.63;;;;;;;;;;21249798;27;20164;-68
2022/12/25 16:10:57;;;;;;;11.00;3.88;;;;;;;;;;21250867;27;20410;-61
2022/12/25 16:21:00;;;;;;;6.70;3.70;;;;;;;;;;21251291;27;20074;-62
2022/12/25 16:31:01;;;;;;;7.60;2.88;;;;;;;;;;21248806;27;20047;-64
2022/12/25 16:41:03;;;;;;;11.02;3.85;;;;;;;;;;21249240;27;20092;-60
2022/12/25 16:51:13;;;;;;;8.00;3.85;;;;;;;;;;21247901;27;20082;-62
2022/12/25 17:01:18;;;;;;;12.45;5.63;;;;;;;;;;21247885;27;20050;-59
2022/12/25 17:11:25;;;;;;;10.52;5.10;;;;;;;;;;21262022;27;20047;-64
2022/12/25 17:21:28;;;;;;;12.55;4.50;;;;;;;;;;21266302;27;20060;-59
2022/12/25 17:31:30;;;;;;;13.10;5.70;;;;;;;;;;21263690;27;20107;-61
2022/12/25 17:41:33;;;;;;;14.88;6.85;;;;;;;;;;21263477;27;20047;-61
2022/12/25 17:51:35;;;;;;;13.48;8.52;;;;;;;;;;21263212;27;20047;-60
2022/12/25 18:01:38;;;;;;;22.88;10.02;;;;;;;;;;21261740;27;20415;-68
2022/12/25 18:11:41;;;;;;;15.05;8.65;;;;;;;;;;21261018;27;20475;-69
2022/12/25 18:21:43;;;;;;;15.95;8.60;;;;;;;;;;21241164;27;20075;-61
2022/12/25 18:31:46;;;;;;;22.65;11.10;;;;;;;;;;21260160;27;20070;-62
2022/12/25 18:52:10;;;;;;;16.88;9.38;;;;;;;;;;21257937;27;20051;-63
2022/12/25 19:02:13;;;;;;;16.20;9.52;;;;;;;;;;21256150;27;20043;-63
2022/12/25 19:12:17;;;;;;;23.27;11.93;;;;;;;;;;21255843;27;20047;-60
2022/12/25 19:22:19;;;;;;;23.65;12.55;;;;;;;;;;21255128;27;20043;-58
2022/12/25 19:32:21;;;;;;;25.27;17.33;;;;;;;;;;21254647;27;20441;-61
2022/12/25 19:42:24;;;;;;;17.67;11.07;;;;;;;;;;21253217;27;20043;-61
2022/12/25 19:52:25;;;;;;;18.00;10.65;;;;;;;;;;21252888;27;20055;-60
2022/12/25 20:02:27;;;;;;;20.05;10.38;;;;;;;;;;21251673;27;20051;-61
2022/12/25 20:12:30;;;;;;;19.23;10.45;;;;;;;;;;21251445;27;20058;-60
2022/12/25 20:22:32;;;;;;;19.30;10.32;;;;;;;;;;21253325;27;20047;-60
2022/12/25 20:32:34;;;;;;;18.08;10.65;;;;;;;;;;21250342;27;20051;-59
2022/12/25 20:42:36;;;;;;;21.48;11.98;;;;;;;;;;21248909;27;20043;-62
2022/12/25 20:52:38;;;;;;;22.92;12.13;;;;;;;;;;21249112;27;20061;-60
2022/12/25 21:02:41;;;;;;;23.55;12.70;;;;;;;;;;21248150;27;20051;-60
2022/12/25 21:12:43;;;;;;;23.55;12.10;;;;;;;;;;21229123;28;20118;-61
2022/12/25 21:22:46;;;;;;;23.45;12.10;;;;;;;;;;21247792;28;20047;-60
2022/12/25 21:43:15;;;;;;;21.38;11.52;;;;;;;;;;21247107;28;20047;-61
2022/12/25 21:53:19;;;;;;;24.33;11.90;;;;;;;;;;21243815;27;20054;-61
2022/12/25 22:03:23;;;;;;;23.23;11.98;;;;;;;;;;21261948;27;20384;-61
2022/12/25 22:23:49;;;;;;;29.60;14.73;;;;;;;;;;21260549;27;20459;-60
2022/12/25 22:33:52;;;;;;;22.67;11.43;;;;;;;;;;21259905;27;20058;-68
2022/12/25 22:43:55;;;;;;;23.77;12.90;;;;;;;;;;21259260;27;20043;-61
2022/12/25 22:53:59;;;;;;;27.17;12.25;;;;;;;;;;21257815;27;20055;-63
2022/12/25 23:04:02;;;;;;;30.85;12.90;;;;;;;;;;21257097;27;20055;-63
2022/12/25 23:34:45;;;;;;;21.55;11.80;;;;;;;;;;21255010;27;20043;-64
2022/12/25 23:44:47;;;;;;;23.42;11.52;;;;;;;;;;21253898;27;20043;-57
2022/12/25 23:54:48;;;;;;;21.15;11.13;;;;;;;;;;21236057;27;20051;-60
